Latest Weather Observations for Narrandera Airport

IDN60801

Issued at 4:05 pm EDT Saturday 1 November 2014 (issued every 30 minutes, with the page automatically refreshed every 10 minutes)

About weather observations | Map of weather stations | Latest weather observations for NSW | Other Formats
Station Details ID: 074148 Name: NARRANDERA AIRPORT AWS Lat: -34.70 Lon: 146.51 Height: 145.0 m
Data from the previous 72 hours. | See also: Recent months for locations in New South Wales
Date/Time
EDT
Temp
°C
App
Temp
°C
Dew
Point
Rel
Hum
%
Delta-T
°C
Wind Press
QNH
hPa
Press
MSL
hPa
Rain
since 9 am
mm
Dir
 
Spd
km/h
Gust
km/h
Spd
kts
Gust
kts
01/04:00pm 21.0 13.2 1.8 28 8.9 WSW 32 50 17 27 1008.7 1008.2 3.0
01/03:30pm 21.7 13.9 4.7 33 8.4 W 35 56 19 30 1008.5 1008.0 3.0
01/03:00pm 22.5 15.7 6.7 36 8.2 W 32 52 17 28 1008.4 1007.9 3.0
01/02:32pm 21.7 16.5 10.2 48 6.3 W 28 46 15 25 1008.4 1007.9 3.0
01/02:30pm 21.4 15.6 9.3 46 6.5 W 30 46 16 25 1008.4 1007.9 3.0
01/02:27pm 21.4 16.1 9.9 48 6.2 W 28 46 15 25 1008.4 1007.9 3.0
01/02:00pm 18.8 14.5 10.6 59 4.5 W 24 35 13 19 1008.6 1008.1 3.0
01/01:30pm 19.0 14.8 11.1 60 4.3 W 24 37 13 20 1008.6 1008.1 3.0
01/01:00pm 17.7 13.7 11.7 68 3.3 WSW 24 37 13 20 1008.5 1008.0 3.0
01/12:30pm 16.4 13.1 12.9 80 2.0 W 22 37 12 20 1008.3 1007.8 3.0
01/12:00pm 15.8 12.6 13.1 84 1.5 WSW 22 39 12 21 1008.1 1007.6 3.0
01/11:30am 15.4 12.5 13.9 91 0.9 W 22 35 12 19 1008.0 1007.5 3.0
01/11:00am 15.5 12.6 14.0 91 0.9 W 22 32 12 17 1007.9 1007.3 2.4
01/10:30am 17.2 12.3 12.5 74 2.6 W 30 50 16 27 1007.1 1006.8 0.0
01/10:11am 19.5 14.6 11.3 59 4.5 W 28 46 15 25 1006.0 1005.7 0.0
01/10:00am 20.8 17.1 10.0 50 5.9 W 20 30 11 16 1005.9 1005.6 0.0
01/09:30am 21.0 17.3 9.6 48 6.1 WSW 19 26 10 14 1004.6 1004.3 0.0
01/09:00am 22.9 18.8 8.6 40 7.7 W 20 28 11 15 1005.0 1004.8 -
01/08:30am 23.2 19.2 8.9 40 7.7 W 20 33 11 18 1004.3 1004.0 -
01/08:00am 23.9 19.4 7.1 34 8.8 WSW 20 35 11 19 1004.1 1003.8 -
01/07:30am 23.7 19.1 6.5 33 8.9 W 20 28 11 15 1004.0 1003.7 -
01/07:00am 24.5 19.2 6.7 32 9.3 WSW 24 41 13 22 1003.7 1003.4 -
01/06:30am 24.7 18.9 10.9 42 7.8 NW 32 39 17 21 1003.0 1002.7 -
01/06:00am 23.7 19.4 10.7 44 7.3 NNW 24 37 13 20 1002.4 1002.1 -
01/05:36am 24.1 17.8 11.1 44 7.3 WNW 35 54 19 29 1002.0 1001.7 -
01/05:31am 24.4 16.9 11.0 43 7.5 WNW 41 48 22 26 1002.4 1002.1 -
01/05:30am 24.5 17.5 11.1 43 7.6 N 39 57 21 31 1001.8 1001.5 -
01/05:20am 24.5 18.1 10.8 42 7.7 N 35 54 19 29 999.9 999.6 -
01/05:00am 24.5 18.1 10.8 42 7.7 N 35 48 19 26 999.9 999.6 -
01/04:30am 24.7 17.9 10.6 41 7.9 N 37 48 20 26 1000.3 1000.0 -
01/04:00am 25.3 18.1 10.7 40 8.3 N 39 52 21 28 1000.4 1000.1 -
01/03:30am 25.5 18.0 10.9 40 8.2 N 41 52 22 28 1000.9 1000.6 -
01/03:18am 25.7 18.3 11.1 40 8.3 N 41 59 22 32 1001.1 1000.8 -
01/03:00am 26.1 19.1 11.1 39 8.6 N 39 56 21 30 1001.2 1000.9 -
01/02:30am 26.6 19.1 10.7 37 9.0 N 41 50 22 27 1001.2 1000.9 -
01/02:00am 26.4 19.5 8.8 33 9.7 N 35 50 19 27 1001.5 1001.2 0.0
01/01:30am 26.8 19.3 4.6 24 11.3 N 33 48 18 26 1002.0 1001.7 0.0
01/01:13am 27.6 19.4 0.4 17 12.9 N 33 41 18 22 1002.3 1002.0 0.0
01/01:00am 27.7 23.2 -0.4 16 13.3 N 13 20 7 11 1002.3 1002.0 0.0
01/12:30am 27.2 22.6 -0.8 16 13.0 NNW 13 15 7 8 1002.8 1002.5 0.0
01/12:00am 28.2 22.9 -0.9 15 13.6 N 17 20 9 11 1003.0 1002.7 0.0
 
Date/Time
EDT
Temp
°C
App
Temp
°C
Dew
Point
Rel
Hum
%
Delta-T
°C
Wind Press
QNH
hPa
Press
MSL
hPa
Rain
since 9 am
mm
Dir
 
Spd
km/h
Gust
km/h
Spd
kts
Gust
kts
31/11:30pm 27.1 22.9 -0.9 16 13.0 NNW 11 19 6 10 1003.0 1002.7 0.0
31/11:00pm 28.3 22.6 -0.8 15 13.7 N 19 22 10 12 1003.2 1002.9 0.0
31/10:30pm 26.6 21.3 -0.4 17 12.6 N 17 20 9 11 1003.4 1003.1 0.0
31/10:00pm 26.7 21.8 -0.3 17 12.7 N 15 20 8 11 1003.7 1003.4 0.0
31/09:30pm 24.6 20.8 1.5 22 11.0 N 11 15 6 8 1003.6 1003.3 0.0
31/09:00pm 26.5 21.6 -0.5 17 12.6 N 15 19 8 10 1003.5 1003.2 0.0
31/08:30pm 26.9 22.4 -0.2 17 12.7 N 13 17 7 9 1003.5 1003.2 0.0
31/08:00pm 29.0 23.8 -0.2 15 13.9 N 17 20 9 11 1003.6 1003.3 0.0
31/07:30pm 30.5 25.9 -1.0 13 14.9 N 13 17 7 9 1003.4 1003.1 0.0
31/07:00pm 32.9 28.3 -1.4 11 16.5 NNW 13 20 7 11 1003.5 1003.2 0.0
31/06:30pm 32.5 27.1 -1.7 11 16.2 NNW 17 22 9 12 1003.9 1003.6 0.0
31/06:00pm 33.0 27.1 -2.6 10 16.8 NW 19 28 10 15 1004.3 1004.0 0.0
31/05:30pm 33.4 26.4 -3.7 9 17.2 WNW 24 30 13 16 1004.4 1004.1 0.0
31/05:00pm 35.1 26.5 -2.5 9 18.0 NNW 33 41 18 22 1004.8 1004.5 0.0
31/04:30pm 34.1 26.5 -1.8 10 17.2 NW 28 37 15 20 1004.9 1004.7 0.0
31/04:00pm 34.1 27.1 -3.2 9 17.5 NW 24 33 13 18 1005.1 1004.9 0.0
31/03:30pm 34.2 25.9 -1.7 10 17.3 NW 32 43 17 23 1005.5 1005.2 0.0
31/03:00pm 35.5 27.5 -2.2 9 18.2 NNW 30 46 16 25 1005.6 1005.3 0.0
31/02:59pm 35.8 28.2 -2.0 9 18.3 NNW 28 46 15 25 1005.6 1005.3 0.0
31/02:30pm 35.2 26.2 -2.4 9 18.0 NW 35 46 19 25 1006.0 1005.7 0.0
31/02:19pm 35.9 28.3 -1.9 9 18.3 NW 28 46 15 25 1006.1 1005.8 0.0
31/02:00pm 35.3 27.1 -0.9 10 17.8 NW 32 43 17 23 1006.5 1006.2 0.0
31/01:49pm 35.3 27.1 -0.9 10 17.8 NW 32 50 17 27 1006.7 1006.4 0.0
31/01:30pm 35.2 27.4 -1.0 10 17.7 NNW 30 43 16 23 1007.1 1006.8 0.0
31/01:00pm 34.8 26.4 -2.7 9 17.9 NNW 32 43 17 23 1007.6 1007.3 0.0
31/12:30pm 34.1 29.2 1.8 13 16.4 WNW 17 26 9 14 1008.3 1008.0 0.0
31/12:00pm 32.4 26.9 0.5 13 15.7 NW 19 30 10 16 1008.9 1008.6 0.0
31/11:30am 32.7 27.0 0.7 13 15.8 N 20 30 11 16 1009.3 1009.0 0.0
31/11:00am 32.0 26.2 0.2 13 15.6 NNW 20 30 11 16 1010.0 1009.7 0.0
31/10:30am 31.2 25.5 0.6 14 15.0 N 20 28 11 15 1010.3 1010.0 0.0
31/10:00am 29.2 25.4 3.9 20 13.0 ENE 13 19 7 10 1010.7 1010.4 0.0
31/09:30am 27.1 22.5 3.6 22 11.8 ENE 17 22 9 12 1010.9 1010.7 0.0
31/09:00am 26.2 23.3 4.6 25 11.0 E 9 13 5 7 1011.2 1011.0 0.0
31/08:30am 23.6 19.7 3.5 27 9.8 ENE 13 17 7 9 1011.2 1011.0 0.0
31/08:00am 21.7 18.7 3.9 31 8.7 E 9 13 5 7 1011.4 1011.2 0.0
31/07:30am 16.7 15.1 4.7 45 5.7 ESE 2 9 1 5 1011.8 1011.6 0.0
31/07:00am 13.5 12.7 6.6 63 3.3 CALM 0 0 0 0 1011.8 1011.6 0.0
31/06:30am 11.2 10.3 5.9 70 2.5 CALM 0 0 0 0 1011.6 1011.4 0.0
31/06:00am 10.5 9.1 3.5 62 3.1 CALM 0 0 0 0 1011.4 1011.2 0.0
31/05:30am 10.8 9.4 3.6 61 3.2 CALM 0 0 0 0 1010.9 1010.7 0.0
31/05:00am 10.9 8.4 3.9 62 3.1 S 6 7 3 4 1010.6 1010.3 0.0
31/04:30am 11.4 10.0 3.7 59 3.4 CALM 0 0 0 0 1010.5 1010.2 0.0
31/04:00am 11.5 9.7 3.3 57 3.6 ESE 2 6 1 3 1010.7 1010.4 0.0
31/03:30am 11.9 10.5 3.7 57 3.7 CALM 0 0 0 0 1010.9 1010.7 0.0
31/03:00am 12.4 11.1 4.1 57 3.8 CALM 0 0 0 0 1010.8 1010.5 0.0
31/02:30am 12.7 11.5 4.4 57 3.8 CALM 0 0 0 0 1011.1 1010.9 0.0
31/02:00am 13.2 12.0 4.4 55 4.1 CALM 0 0 0 0 1011.7 1011.5 0.0
31/01:30am 13.6 12.4 4.7 55 4.1 CALM 0 0 0 0 1012.1 1011.9 0.0
31/01:00am 14.1 13.1 5.7 57 4.0 CALM 0 0 0 0 1012.5 1012.2 0.0
31/12:30am 15.5 14.9 7.3 58 4.1 CALM 0 0 0 0 1012.6 1012.3 0.0
31/12:00am 16.2 15.2 5.8 50 5.1 CALM 0 0 0 0 1012.6 1012.3 0.0
 
Date/Time
EDT
Temp
°C
App
Temp
°C
Dew
Point
Rel
Hum
%
Delta-T
°C
Wind Press
QNH
hPa
Press
MSL
hPa
Rain
since 9 am
mm
Dir
 
Spd
km/h
Gust
km/h
Spd
kts
Gust
kts
30/11:30pm 16.5 15.7 6.6 52 4.9 CALM 0 0 0 0 1012.6 1012.3 0.0
30/11:00pm 17.5 16.7 6.7 49 5.4 CALM 0 0 0 0 1012.7 1012.4 0.0
30/10:30pm 17.9 16.7 4.5 41 6.4 CALM 0 0 0 0 1012.6 1012.3 0.0
30/10:00pm 18.0 16.6 3.5 38 6.8 CALM 0 0 0 0 1012.5 1012.2 0.0
30/09:30pm 19.4 17.9 3.2 34 7.6 CALM 0 0 0 0 1012.4 1012.1 0.0
30/09:00pm 20.7 19.2 3.0 31 8.4 CALM 0 0 0 0 1012.0 1011.8 0.0
30/08:30pm 23.4 21.8 2.3 25 10.1 CALM 0 0 0 0 1011.8 1011.6 0.0
30/08:00pm 26.1 23.3 2.1 21 11.7 SW 6 7 3 4 1011.7 1011.5 0.0
30/07:30pm 28.8 26.8 2.1 18 13.2 WSW 2 7 1 4 1011.5 1011.3 0.0
30/07:00pm 29.9 24.5 1.4 16 14.0 W 19 30 10 16 1011.3 1011.1 0.0
30/06:30pm 30.9 25.9 1.3 15 14.6 W 17 28 9 15 1011.2 1011.0 0.0
30/06:00pm 31.2 26.1 0.6 14 15.0 SW 17 22 9 12 1011.2 1011.0 0.0
30/05:30pm 31.8 25.0 1.0 14 15.2 W 26 37 14 20 1011.1 1010.9 0.0
30/05:00pm 31.7 25.7 1.0 14 15.2 NW 22 28 12 15 1011.2 1011.0 0.0
30/04:30pm 32.0 27.5 2.1 15 15.1 WSW 15 22 8 12 1011.5 1011.3 0.0
30/04:00pm 31.4 25.9 0.7 14 15.1 W 19 28 10 15 1011.7 1011.5 0.0
30/03:30pm 31.2 25.1 0.6 14 15.0 W 22 35 12 19 1012.0 1011.8 0.0
30/03:00pm 31.6 26.1 1.8 15 14.9 W 20 30 11 16 1012.4 1012.1 0.0
30/02:30pm 31.1 26.2 2.3 16 14.5 WSW 17 26 9 14 1012.9 1012.6 0.0
30/02:00pm 30.4 25.0 2.6 17 14.0 W 20 33 11 18 1013.3 1013.0 0.0
30/01:30pm 30.3 24.8 4.1 19 13.5 W 22 30 12 16 1013.7 1013.4 0.0
30/01:00pm 29.1 23.1 3.1 19 13.1 WNW 24 35 13 19 1014.1 1013.8 0.0
30/12:30pm 29.8 24.8 3.7 19 13.3 WNW 19 30 10 16 1014.4 1014.1 0.0
30/12:00pm 28.3 23.4 3.9 21 12.4 W 19 33 10 18 1014.9 1014.6 0.0
30/11:30am 27.8 24.8 4.2 22 12.0 NNW 9 20 5 11 1015.2 1014.9 0.0
30/11:00am 26.7 22.1 3.9 23 11.5 WNW 17 30 9 16 1015.4 1015.1 0.0
30/10:30am 26.9 22.4 4.0 23 11.6 WNW 17 24 9 13 1015.5 1015.2 0.0
30/10:00am 26.3 22.6 4.7 25 11.0 NNW 13 19 7 10 1015.6 1015.3 0.0
30/09:30am 24.8 21.5 4.5 27 10.2 NNW 11 15 6 8 1015.7 1015.4 0.0
30/09:00am 22.9 21.2 5.8 33 8.7 N 4 9 2 5 1016.0 1015.7 0.0
30/08:30am 19.8 18.8 5.5 39 7.1 CALM 0 0 0 0 1016.1 1015.8 0.0
30/08:00am 16.8 16.0 6.3 50 5.2 CALM 0 0 0 0 1015.8 1015.5 0.0
30/07:30am 13.1 12.2 6.2 63 3.3 CALM 0 0 0 0 1015.5 1015.2 0.0
30/07:00am 12.5 11.6 6.1 65 3.0 CALM 0 0 0 0 1015.2 1014.9 0.0
30/06:30am 11.2 10.2 5.7 69 2.6 CALM 0 0 0 0 1014.9 1014.6 0.0
30/06:00am 10.5 9.4 5.3 70 2.4 CALM 0 0 0 0 1015.0 1014.7 0.0
30/05:30am 10.3 9.1 4.5 67 2.6 CALM 0 0 0 0 1014.9 1014.6 0.0
30/05:00am 10.6 9.3 4.3 65 2.8 CALM 0 0 0 0 1014.9 1014.6 0.0
30/04:30am 10.7 9.5 4.6 66 2.8 CALM 0 0 0 0 1014.8 1014.5 0.0
30/04:00am 10.5 9.4 5.3 70 2.4 CALM 0 0 0 0 1014.9 1014.6 0.0
30/03:30am 9.8 8.4 3.8 66 2.7 CALM 0 0 0 0 1014.8 1014.5 0.0
30/03:00am 10.1 8.8 4.0 66 2.7 CALM 0 0 0 0 1015.0 1014.7 0.0
30/02:30am 10.3 8.9 3.8 64 2.9 CALM 0 0 0 0 1015.1 1014.8 0.0
30/02:00am 10.4 9.1 4.3 66 2.7 CALM 0 0 0 0 1015.2 1014.9 0.0
30/01:30am 10.6 9.3 3.9 63 3.0 CALM 0 0 0 0 1015.5 1015.2 0.0
30/01:00am 11.5 10.3 4.7 63 3.1 CALM 0 0 0 0 1015.6 1015.3 0.0
30/12:30am 11.7 10.6 4.9 63 3.1 CALM 0 0 0 0 1015.8 1015.5 0.0
30/12:00am 12.3 11.0 4.0 57 3.8 CALM 0 0 0 0 1016.0 1015.7 0.0
 
Date/Time
EDT
Temp
°C
App
Temp
°C
Dew
Point
Rel
Hum
%
Delta-T
°C
Wind Press
QNH
hPa
Press
MSL
hPa
Rain
since 9 am
mm
Dir
 
Spd
km/h
Gust
km/h
Spd
kts
Gust
kts
29/11:30pm 12.6 11.4 4.6 58 3.7 CALM 0 0 0 0 1016.2 1015.9 0.0
29/11:00pm 13.2 11.9 4.1 54 4.2 CALM 0 0 0 0 1016.2 1015.9 0.0
29/10:30pm 14.2 12.9 4.2 51 4.6 CALM 0 0 0 0 1016.2 1015.9 0.0
29/10:00pm 15.3 14.2 4.9 50 4.9 CALM 0 0 0 0 1016.1 1015.8 0.0
29/09:30pm 17.4 16.7 6.9 50 5.3 CALM 0 0 0 0 1016.0 1015.7 0.0
29/09:00pm 18.2 17.0 4.4 40 6.6 CALM 0 0 0 0 1015.9 1015.6 0.0
29/08:30pm 19.7 17.5 3.4 34 7.7 SW 4 7 2 4 1015.8 1015.5 0.0
29/08:00pm 22.3 19.7 3.4 29 9.1 WSW 6 9 3 5 1015.5 1015.2 0.0
29/07:30pm 23.7 20.6 3.6 27 9.9 WSW 9 11 5 6 1015.3 1015.0 0.0
29/07:00pm 25.2 21.8 3.8 25 10.6 WSW 11 20 6 11 1015.0 1014.7 0.0
29/06:30pm 25.7 21.8 3.6 24 11.0 W 13 19 7 10 1015.0 1014.7 0.0
29/06:00pm 25.6 21.7 3.5 24 11.0 WSW 13 20 7 11 1014.9 1014.6 0.0
29/05:30pm 26.1 21.9 4.0 24 11.1 WSW 15 22 8 12 1015.0 1014.7 0.0
29/05:00pm 26.1 21.6 4.0 24 11.1 W 17 22 9 12 1015.0 1014.7 0.0
29/04:30pm 26.1 21.9 4.0 24 11.1 WSW 15 20 8 11 1015.2 1014.9 0.0

Other Formats:

Comma delimited format used in spreadsheet applications
http://www.bom.gov.au/fwo/IDN60801/IDN60801.95706.axf

JavaScript Object Notation format (JSON) in row-major order
http://www.bom.gov.au/fwo/IDN60801/IDN60801.95706.json